createdAt,value
2019-01-15T00:02:19.726Z,2.33
2019-01-15T00:04:49.276Z,2.22
2019-01-15T00:07:18.761Z,1.40
2019-01-15T00:09:48.412Z,2.58
2019-01-15T00:12:25.434Z,2.53
2019-01-15T00:14:55.101Z,2.92
2019-01-15T00:17:24.618Z,1.90
2019-01-15T00:19:54.099Z,2.07
2019-01-15T00:22:23.669Z,1.80
2019-01-15T00:24:53.223Z,1.70
2019-01-15T00:27:22.687Z,2.43
2019-01-15T00:29:52.174Z,1.90
2019-01-15T00:32:21.727Z,2.00
2019-01-15T00:34:51.289Z,2.03
2019-01-15T00:37:20.749Z,2.40
2019-01-15T00:39:50.330Z,1.87
2019-01-15T00:42:19.934Z,1.97
2019-01-15T00:44:49.421Z,2.40
2019-01-15T00:47:18.896Z,2.40
2019-01-15T00:49:48.593Z,2.15
2019-01-15T00:52:18.554Z,2.22
2019-01-15T00:54:48.805Z,1.77
2019-01-15T00:57:18.846Z,2.02
2019-01-15T00:59:53.724Z,2.40
2019-01-15T01:02:23.208Z,1.90
2019-01-15T01:04:52.749Z,3.35
2019-01-15T01:07:22.219Z,2.50
2019-01-15T01:09:51.795Z,2.00
2019-01-15T01:12:22.288Z,2.70
2019-01-15T01:14:58.507Z,2.93
2019-01-15T01:17:27.965Z,2.03
2019-01-15T01:19:57.513Z,2.13
2019-01-15T01:22:26.989Z,1.85
2019-01-15T01:24:56.570Z,1.77
2019-01-15T01:27:26.020Z,3.03
2019-01-15T01:29:57.104Z,3.00
2019-01-15T01:32:26.653Z,2.50
2019-01-15T01:34:56.199Z,1.87
2019-01-15T01:37:27.302Z,2.33
2019-01-15T01:39:56.775Z,1.30
2019-01-15T01:42:29.600Z,2.17
2019-01-15T01:45:17.405Z,1.87
2019-01-15T01:47:46.905Z,1.57
2019-01-15T01:50:19.025Z,2.05
2019-01-15T01:52:49.103Z,2.30
2019-01-15T01:55:18.965Z,3.75
2019-01-15T01:57:49.104Z,1.65
2019-01-15T02:00:20.422Z,2.42
2019-01-15T02:02:50.082Z,2.70
2019-01-15T02:05:19.637Z,1.37
2019-01-15T02:07:49.355Z,2.40
2019-01-15T02:10:20.016Z,1.75
2019-01-15T02:12:51.141Z,2.27
2019-01-15T02:15:41.244Z,2.60
2019-01-15T02:18:10.715Z,1.20
2019-01-15T02:20:40.365Z,1.93
2019-01-15T02:23:09.833Z,2.12
2019-01-15T02:25:39.405Z,1.60
2019-01-15T02:28:08.873Z,1.12
2019-01-15T02:30:38.366Z,2.20
2019-01-15T02:33:07.922Z,1.52
2019-01-15T02:35:37.426Z,1.77
2019-01-15T02:38:06.895Z,1.55
2019-01-15T02:40:36.375Z,2.43
2019-01-15T02:43:05.868Z,2.23
2019-01-15T02:45:35.455Z,1.97
2019-01-15T02:48:05.033Z,1.40
2019-01-15T02:50:34.531Z,2.20
2019-01-15T02:53:04.027Z,2.13
2019-01-15T02:55:33.508Z,2.03
2019-01-15T02:58:03.026Z,1.63
2019-01-15T03:00:32.581Z,1.60
2019-01-15T03:06:15.679Z,2.37
2019-01-15T03:08:45.201Z,1.47
2019-01-15T03:11:14.677Z,2.20
2019-01-15T03:13:44.157Z,1.87
2019-01-15T03:16:13.623Z,2.07
2019-01-15T03:18:43.102Z,1.87
2019-01-15T03:21:12.674Z,1.63
2019-01-15T03:23:42.165Z,1.70
2019-01-15T03:26:11.656Z,1.30
2019-01-15T03:28:41.117Z,1.37
2019-01-15T03:31:10.594Z,2.00
2019-01-15T03:33:40.069Z,1.70
2019-01-15T03:36:09.567Z,3.00
2019-01-15T03:38:39.050Z,1.70
2019-01-15T03:41:27.906Z,1.30
2019-01-15T03:43:57.404Z,2.17
2019-01-15T03:46:38.707Z,1.20
2019-01-15T03:49:03.864Z,1.70
2019-01-15T03:51:33.406Z,2.40
2019-01-15T03:54:02.926Z,1.63
2019-01-15T03:56:32.447Z,3.57
2019-01-15T04:02:03.920Z,2.27
2019-01-15T04:04:33.492Z,1.97
2019-01-15T04:07:03.144Z,1.57
2019-01-15T04:09:32.875Z,2.12
2019-01-15T04:12:02.404Z,1.40
2019-01-15T04:14:31.870Z,1.77
2019-01-15T04:19:56.074Z,1.30
2019-01-15T04:22:25.652Z,1.20
2019-01-15T04:24:55.146Z,1.27
2019-01-15T04:27:24.627Z,2.23
2019-01-15T04:29:54.098Z,1.80
2019-01-15T04:32:23.572Z,1.13
2019-01-15T04:34:54.663Z,1.67
2019-01-15T04:37:24.260Z,1.70
2019-01-15T04:39:53.840Z,2.30
2019-01-15T04:42:23.297Z,2.40
2019-01-15T04:44:52.848Z,2.30
2019-01-15T04:47:22.306Z,2.97
2019-01-15T04:49:53.406Z,3.17
2019-01-15T04:55:04.423Z,1.93
2019-01-15T04:57:33.914Z,2.00
2019-01-15T05:00:15.650Z,3.87
2019-01-15T05:02:45.301Z,3.50
2019-01-15T05:05:15.133Z,1.92
2019-01-15T05:07:44.613Z,1.60
2019-01-15T05:10:14.329Z,1.40
2019-01-15T05:12:43.905Z,1.50
2019-01-15T05:15:14.089Z,1.20
2019-01-15T05:17:43.629Z,2.13
2019-01-15T05:20:15.302Z,1.20
2019-01-15T05:22:45.115Z,1.35
2019-01-15T05:25:16.733Z,1.77
2019-01-15T05:27:46.208Z,1.20
2019-01-15T05:33:13.013Z,1.33
2019-01-15T05:35:42.493Z,1.40
2019-01-15T05:38:11.958Z,2.07
2019-01-15T05:40:41.459Z,2.17
2019-01-15T05:43:10.940Z,1.55
2019-01-15T05:45:43.027Z,1.30
2019-01-15T05:48:31.624Z,1.63
2019-01-15T05:54:10.094Z,1.40
2019-01-15T05:56:58.961Z,1.60
2019-01-15T05:59:28.442Z,1.20
2019-01-15T06:01:57.894Z,1.43
2019-01-15T06:04:27.382Z,1.25
2019-01-15T06:06:58.450Z,1.80
2019-01-15T06:12:28.152Z,1.43
2019-01-15T06:14:57.624Z,1.80
2019-01-15T06:17:27.082Z,2.20
2019-01-15T06:19:56.556Z,1.90
2019-01-15T06:22:26.129Z,2.10
2019-01-15T06:24:55.596Z,2.07
2019-01-15T06:27:25.058Z,2.10
2019-01-15T06:29:54.519Z,1.67
2019-01-15T06:32:23.995Z,1.73
2019-01-15T06:34:53.667Z,1.73
2019-01-15T06:37:23.112Z,2.43
2019-01-15T06:40:11.892Z,2.10
2019-01-15T06:42:41.417Z,1.80
2019-01-15T06:45:14.213Z,4.20
2019-01-15T06:47:43.752Z,2.53
2019-01-15T06:50:54.064Z,2.77
2019-01-15T06:53:23.527Z,2.50
2019-01-15T06:55:53.018Z,3.12
2019-01-15T06:58:22.493Z,4.00
2019-01-15T07:00:52.007Z,2.70
2019-01-15T07:03:21.503Z,2.60
2019-01-15T07:05:50.990Z,3.53
2019-01-15T07:08:39.549Z,2.93
2019-01-15T07:11:09.068Z,3.33
2019-01-15T07:13:38.528Z,2.30
2019-01-15T07:19:03.817Z,3.27
2019-01-15T07:21:33.496Z,3.20
2019-01-15T07:24:03.039Z,3.60
2019-01-15T07:26:32.535Z,2.10
2019-01-15T07:32:15.127Z,3.97
2019-01-15T07:34:44.592Z,3.03
2019-01-15T07:40:17.400Z,5.00
2019-01-15T07:42:47.399Z,4.40
2019-01-15T07:45:17.419Z,4.00
2019-01-15T07:47:47.486Z,4.47
2019-01-15T07:50:17.897Z,5.50
2019-01-15T07:52:47.649Z,5.83
2019-01-15T07:55:36.776Z,5.22
2019-01-15T07:58:06.341Z,5.40
2019-01-15T08:00:35.885Z,4.30
2019-01-15T08:03:07.045Z,4.57
2019-01-15T08:05:36.535Z,6.50
2019-01-15T08:08:06.142Z,7.00
2019-01-15T08:10:35.703Z,7.10
2019-01-15T08:13:26.021Z,6.50
2019-01-15T08:15:56.549Z,6.60
2019-01-15T08:18:32.371Z,6.75
2019-01-15T08:23:55.588Z,8.70
2019-01-15T08:26:25.065Z,8.63
2019-01-15T08:28:54.542Z,8.95
2019-01-15T08:32:02.163Z,8.10
2019-01-15T08:34:31.721Z,9.60
2019-01-15T08:37:20.248Z,10.03
2019-01-15T08:39:49.739Z,10.23
2019-01-15T08:42:19.208Z,9.40
2019-01-15T08:44:48.943Z,11.00
2019-01-15T08:58:55.295Z,10.60
2019-01-15T09:01:24.794Z,11.07
2019-01-15T09:03:54.268Z,11.80
2019-01-15T09:06:23.858Z,12.00
2019-01-15T09:08:53.327Z,9.30
2019-01-15T09:11:22.904Z,11.90
2019-01-15T09:13:52.461Z,10.97
2019-01-15T09:19:17.418Z,11.60
2019-01-15T09:21:46.924Z,12.40
2019-01-15T09:24:16.392Z,10.43
2019-01-15T09:26:45.887Z,12.30
2019-01-15T09:29:15.353Z,12.90
2019-01-15T09:31:45.064Z,10.43
2019-01-15T09:34:14.534Z,12.97
2019-01-15T09:37:15.554Z,11.03
2019-01-15T09:39:45.029Z,11.67
2019-01-15T09:42:14.659Z,12.23
2019-01-15T09:48:03.460Z,11.40
2019-01-15T09:50:33.672Z,13.30
2019-01-15T09:53:16.541Z,11.70
2019-01-15T09:55:46.090Z,13.60
2019-01-15T09:58:15.561Z,11.50
2019-01-15T10:00:45.059Z,12.10
2019-01-15T10:03:14.607Z,13.60
2019-01-15T10:05:44.174Z,12.33
2019-01-15T10:08:13.638Z,11.60
2019-01-15T10:10:43.136Z,12.70
2019-01-15T10:13:33.477Z,12.28
2019-01-15T10:16:14.628Z,12.55
2019-01-15T10:18:44.106Z,14.03
2019-01-15T10:21:13.597Z,14.57
2019-01-15T10:23:43.059Z,12.33
2019-01-15T10:26:14.158Z,13.80
2019-01-15T10:28:43.631Z,11.43
2019-01-15T10:31:54.864Z,12.35
2019-01-15T10:34:29.312Z,11.67
2019-01-15T10:36:57.583Z,15.00
2019-01-15T10:39:27.056Z,11.20
2019-01-15T10:41:56.541Z,15.83
2019-01-15T10:44:26.087Z,11.65
2019-01-15T10:46:55.568Z,12.13
2019-01-15T10:49:25.027Z,13.53
2019-01-15T10:51:56.136Z,13.05
2019-01-15T10:54:25.619Z,15.07
2019-01-15T10:56:55.110Z,14.07
2019-01-15T10:59:26.209Z,14.75
2019-01-15T11:01:55.688Z,15.67
2019-01-15T11:04:25.278Z,13.33
2019-01-15T11:07:06.847Z,14.30
2019-01-15T11:09:36.342Z,14.28
2019-01-15T11:12:05.957Z,13.57
2019-01-15T11:17:25.661Z,14.20
2019-01-15T11:19:55.213Z,14.40
2019-01-15T11:22:24.719Z,15.67
2019-01-15T11:24:54.202Z,14.68
2019-01-15T11:27:25.430Z,15.53
2019-01-15T11:29:54.919Z,14.27
2019-01-15T11:32:24.413Z,14.73
2019-01-15T11:34:54.031Z,13.97
2019-01-15T11:37:23.516Z,14.20
2019-01-15T11:39:53.201Z,15.43
2019-01-15T11:42:22.691Z,14.00
2019-01-15T11:44:52.312Z,13.47
2019-01-15T11:47:21.760Z,13.40
2019-01-15T11:49:51.230Z,14.17
2019-01-15T11:52:21.020Z,15.27
2019-01-15T11:55:15.664Z,14.87
2019-01-15T11:57:45.182Z,12.23
2019-01-15T12:03:47.555Z,15.90
2019-01-15T12:06:36.063Z,13.70
2019-01-15T12:09:28.849Z,12.75
2019-01-15T12:12:17.356Z,13.37
2019-01-15T12:15:10.809Z,13.83
2019-01-15T12:18:02.264Z,13.30
2019-01-15T12:20:50.881Z,14.90
2019-01-15T12:23:39.421Z,15.00
2019-01-15T12:26:16.988Z,13.30
2019-01-15T12:29:05.539Z,14.60
2019-01-15T12:31:41.502Z,12.70
2019-01-15T12:34:30.022Z,12.93
2019-01-15T12:37:10.615Z,13.13
2019-01-15T12:39:59.145Z,11.60
2019-01-15T12:42:47.664Z,12.60
2019-01-15T12:48:38.708Z,12.47
2019-01-15T12:51:16.956Z,14.00
2019-01-15T12:54:07.094Z,11.73
2019-01-15T12:56:55.607Z,11.83
2019-01-15T12:59:44.154Z,12.63
2019-01-15T13:02:32.666Z,13.10
2019-01-15T13:05:11.736Z,9.93
2019-01-15T13:08:00.444Z,12.27
2019-01-15T13:10:48.964Z,12.80
2019-01-15T13:13:37.499Z,12.33
2019-01-15T13:16:26.078Z,9.40
2019-01-15T13:19:14.694Z,12.50
2019-01-15T13:22:03.406Z,7.17
2019-01-15T13:24:51.927Z,11.53
2019-01-15T13:27:40.427Z,11.97
2019-01-15T13:30:19.923Z,10.67
2019-01-15T13:33:08.426Z,11.17
2019-01-15T13:35:56.985Z,11.90
2019-01-15T13:38:45.515Z,10.70
2019-01-15T13:41:34.181Z,11.33
2019-01-15T13:44:35.348Z,11.17
2019-01-15T13:47:43.729Z,10.63
2019-01-15T13:50:32.318Z,10.57
2019-01-15T13:53:21.166Z,11.40
2019-01-15T13:56:09.762Z,7.93
2019-01-15T13:58:58.299Z,9.47
2019-01-15T14:02:01.755Z,9.53
2019-01-15T14:04:50.312Z,10.97
2019-01-15T14:07:38.785Z,9.20
2019-01-15T14:10:29.672Z,9.90
2019-01-15T14:13:12.276Z,8.27
2019-01-15T14:16:01.664Z,10.55
2019-01-15T14:18:41.723Z,8.67
2019-01-15T14:21:30.216Z,9.25
2019-01-15T14:24:18.752Z,8.90
2019-01-15T14:27:09.049Z,9.77
2019-01-15T14:30:03.214Z,8.77
2019-01-15T14:32:42.098Z,8.53
2019-01-15T14:35:30.698Z,10.87
2019-01-15T14:38:19.207Z,9.30
2019-01-15T14:41:07.730Z,9.37
2019-01-15T14:43:56.235Z,9.27
2019-01-15T14:46:44.754Z,7.20
2019-01-15T14:49:33.292Z,8.10
2019-01-15T14:52:21.853Z,8.30
2019-01-15T14:55:10.420Z,9.60
2019-01-15T14:57:58.945Z,6.67
2019-01-15T15:00:47.497Z,8.57
2019-01-15T15:03:36.006Z,8.83
2019-01-15T15:06:25.188Z,9.85
2019-01-15T15:09:13.781Z,10.10
2019-01-15T15:11:55.743Z,9.20
2019-01-15T15:14:44.272Z,9.33
2019-01-15T15:17:32.799Z,9.65
2019-01-15T15:23:02.794Z,9.58
2019-01-15T15:25:51.385Z,8.90
2019-01-15T15:28:39.939Z,8.50
2019-01-15T15:31:28.512Z,10.03
2019-01-15T15:34:17.061Z,8.03
2019-01-15T15:37:05.578Z,8.03
2019-01-15T15:39:54.102Z,8.77
2019-01-15T15:42:44.257Z,7.15
2019-01-15T15:45:32.860Z,11.40
2019-01-15T15:48:21.614Z,8.50
2019-01-15T15:51:10.173Z,7.62
2019-01-15T15:53:58.684Z,8.30
2019-01-15T15:56:47.212Z,6.70
2019-01-15T15:59:35.725Z,6.60
2019-01-15T16:02:45.118Z,7.50
2019-01-15T16:05:22.071Z,8.43
2019-01-15T16:08:49.064Z,8.08
2019-01-15T16:11:28.241Z,8.47
2019-01-15T16:14:16.803Z,8.30
2019-01-15T16:17:05.285Z,8.73
2019-01-15T16:19:53.778Z,7.37
2019-01-15T16:22:42.316Z,8.05
2019-01-15T16:25:31.458Z,8.23
2019-01-15T16:28:19.994Z,9.00
2019-01-15T16:31:08.538Z,7.97
2019-01-15T16:33:57.049Z,7.30
2019-01-15T16:36:45.598Z,7.87
2019-01-15T16:39:34.099Z,7.93
2019-01-15T16:42:23.048Z,9.93
2019-01-15T16:45:11.555Z,8.57
2019-01-15T16:48:00.146Z,8.70
2019-01-15T16:50:48.824Z,9.30
2019-01-15T16:53:37.382Z,8.27
2019-01-15T16:56:25.973Z,7.90
2019-01-15T16:59:14.511Z,8.80
2019-01-15T17:02:03.034Z,8.63
2019-01-15T17:04:51.542Z,9.27
2019-01-15T17:07:40.069Z,8.70
2019-01-15T17:10:28.723Z,10.00
2019-01-15T17:13:17.403Z,8.70
2019-01-15T17:16:05.913Z,10.80
2019-01-15T17:18:45.091Z,10.23
2019-01-15T17:21:33.628Z,10.38
2019-01-15T17:24:41.480Z,10.33
2019-01-15T17:27:30.073Z,10.87
2019-01-15T17:30:18.594Z,11.10
2019-01-15T17:33:07.256Z,11.60
2019-01-15T17:35:55.815Z,11.47
2019-01-15T17:38:44.395Z,11.47
2019-01-15T17:41:33.055Z,9.97
2019-01-15T17:44:12.286Z,9.25
2019-01-15T17:47:01.669Z,10.97
2019-01-15T17:49:50.196Z,13.22
2019-01-15T17:52:43.543Z,10.48
2019-01-15T17:55:34.487Z,12.67
2019-01-15T17:58:23.485Z,13.10
2019-01-15T18:01:12.003Z,9.53
2019-01-15T18:04:00.558Z,11.40
2019-01-15T18:06:49.083Z,13.23
2019-01-15T18:09:37.726Z,11.07
2019-01-15T18:12:27.942Z,12.30
2019-01-15T18:15:18.108Z,12.10
2019-01-15T18:18:06.732Z,14.03
2019-01-15T18:20:42.611Z,12.77
2019-01-15T18:23:31.204Z,12.63
2019-01-15T18:26:19.760Z,9.93
2019-01-15T18:29:08.330Z,12.07
2019-01-15T18:32:16.179Z,11.70
2019-01-15T18:35:04.734Z,10.33
2019-01-15T18:40:54.875Z,11.30
2019-01-15T18:43:43.437Z,13.30
2019-01-15T18:46:31.967Z,13.97
2019-01-15T18:49:20.500Z,10.70
2019-01-15T18:52:09.133Z,12.90
2019-01-15T18:54:57.634Z,12.93
2019-01-15T18:57:46.358Z,14.47
2019-01-15T19:00:34.943Z,12.85
2019-01-15T19:03:23.575Z,13.17
2019-01-15T19:06:12.134Z,13.97
2019-01-15T19:09:22.082Z,13.27
2019-01-15T19:12:10.834Z,12.67
2019-01-15T19:14:59.346Z,12.83
2019-01-15T19:17:41.054Z,13.93
2019-01-15T19:20:29.808Z,13.40
2019-01-15T19:23:09.045Z,13.35
2019-01-15T19:25:57.637Z,11.97
2019-01-15T19:28:46.228Z,12.70
2019-01-15T19:31:34.763Z,14.30
2019-01-15T19:34:16.683Z,11.50
2019-01-15T19:36:54.131Z,12.10
2019-01-15T19:39:42.756Z,14.67
2019-01-15T19:42:31.259Z,12.37
2019-01-15T19:45:20.338Z,13.55
2019-01-15T19:48:03.351Z,13.80
2019-01-15T19:50:51.899Z,14.50
2019-01-15T19:53:40.456Z,11.80
2019-01-15T19:56:29.571Z,14.85
2019-01-15T19:59:18.177Z,12.70
2019-01-15T20:02:06.726Z,12.03
2019-01-15T20:04:55.508Z,12.20
2019-01-15T20:07:44.274Z,13.45
2019-01-15T20:10:53.662Z,12.10
2019-01-15T20:13:42.199Z,12.67
2019-01-15T20:16:30.719Z,13.30
2019-01-15T20:19:19.340Z,14.20
2019-01-15T20:22:07.878Z,11.40
2019-01-15T20:24:56.454Z,15.13
2019-01-15T20:27:45.019Z,13.03
2019-01-15T20:30:27.353Z,14.40
2019-01-15T20:33:15.877Z,14.90
2019-01-15T20:36:04.497Z,12.53
2019-01-15T20:38:53.036Z,12.77
2019-01-15T20:41:41.547Z,13.70
2019-01-15T20:44:30.107Z,11.47
2019-01-15T20:47:25.361Z,11.57
2019-01-15T20:50:10.440Z,14.37
2019-01-15T20:52:59.066Z,11.00
2019-01-15T20:55:42.156Z,13.10
2019-01-15T20:58:30.674Z,11.75
2019-01-15T21:01:19.215Z,10.60
2019-01-15T21:04:07.756Z,11.00
2019-01-15T21:06:56.297Z,12.35
2019-01-15T21:09:44.849Z,11.33
2019-01-15T21:12:33.454Z,10.73
2019-01-15T21:15:22.399Z,11.33
2019-01-15T21:18:10.909Z,10.57
2019-01-15T21:20:59.435Z,11.10
2019-01-15T21:23:47.947Z,11.27
2019-01-15T21:26:36.480Z,11.47
2019-01-15T21:29:25.091Z,12.70
2019-01-15T21:32:13.635Z,12.10
2019-01-15T21:34:55.322Z,13.60
2019-01-15T21:37:43.833Z,12.97
2019-01-15T21:40:32.440Z,13.13
2019-01-15T21:46:23.738Z,10.63
2019-01-15T21:49:04.649Z,12.87
2019-01-15T21:51:53.935Z,11.68
2019-01-15T21:54:35.537Z,12.90
2019-01-15T21:57:24.146Z,12.50
2019-01-15T22:00:12.896Z,11.43
2019-01-15T22:03:01.436Z,12.00
2019-01-15T22:05:49.974Z,14.03
2019-01-15T22:08:38.486Z,11.60
2019-01-15T22:11:16.506Z,10.30
2019-01-15T22:14:05.020Z,10.83
2019-01-15T22:16:54.205Z,13.35
2019-01-15T22:19:42.790Z,11.53
2019-01-15T22:22:31.321Z,12.80
2019-01-15T22:25:19.850Z,10.60
2019-01-15T22:28:08.372Z,12.43
2019-01-15T22:30:56.928Z,13.50
2019-01-15T22:33:45.462Z,11.67
2019-01-15T22:36:34.015Z,13.97
2019-01-15T22:39:35.028Z,13.17
2019-01-15T22:42:24.355Z,11.05
2019-01-15T22:45:12.859Z,15.13
2019-01-15T22:48:01.504Z,11.57
2019-01-15T22:50:50.128Z,12.50
2019-01-15T22:53:38.650Z,11.57
2019-01-15T22:56:27.405Z,10.50
2019-01-15T22:59:15.998Z,12.53
2019-01-15T23:02:04.633Z,12.37
2019-01-15T23:04:53.152Z,12.40
2019-01-15T23:07:41.893Z,11.37
2019-01-15T23:10:30.478Z,12.80
2019-01-15T23:13:19.074Z,13.43
2019-01-15T23:16:11.986Z,12.50
2019-01-15T23:19:00.506Z,12.40
2019-01-15T23:21:49.311Z,14.00
2019-01-15T23:24:37.836Z,13.33
2019-01-15T23:27:26.454Z,13.00
2019-01-15T23:30:14.979Z,14.00
2019-01-15T23:33:03.505Z,13.30
2019-01-15T23:35:43.061Z,13.23
2019-01-15T23:38:27.065Z,15.13
2019-01-15T23:41:15.591Z,13.73
2019-01-15T23:44:04.099Z,17.33
2019-01-15T23:46:52.663Z,14.47
2019-01-15T23:49:28.506Z,13.48
2019-01-15T23:52:17.064Z,16.17
2019-01-15T23:55:05.620Z,14.63
2019-01-15T23:57:54.645Z,15.48
